Time;durP1;ratioP1;P1;durP2;ratioP2;P2;SDS_P1;SDS_P2;PMS_P1;PMS_P2;Temp;Humidity;BMP_temperature;BMP_pressure;BME280_temperature;BME280_humidity;BME280_pressure;Samples;Min_cycle;Max_cycle;Signal;HPM_P1;HPM_P2
2020/12/12 00:01:04;;;;;;;32.00;17.60;;;;;;;;;;5061912;28;20079;-82
2020/12/12 00:03:43;;;;;;;31.35;16.80;;;;;;;;;;5061439;28;20076;-82
2020/12/12 00:06:11;;;;;;;30.50;15.98;;;;;;;;;;5062997;28;20052;-82
2020/12/12 00:08:41;;;;;;;37.28;18.42;;;;;;;;;;5065560;28;20059;-82
2020/12/12 00:11:10;;;;;;;32.83;16.65;;;;;;;;;;5078582;28;20040;-81
2020/12/12 00:13:37;;;;;;;38.80;18.90;;;;;;;;;;5078403;28;20067;-81
2020/12/12 00:16:10;;;;;;;39.33;18.13;;;;;;;;;;5076241;28;20060;-82
2020/12/12 00:18:46;;;;;;;37.92;18.23;;;;;;;;;;5063201;28;20052;-82
2020/12/12 00:21:15;;;;;;;37.70;17.58;;;;;;;;;;5064191;28;20071;-82
2020/12/12 00:23:48;;;;;;;35.92;17.80;;;;;;;;;;5077595;28;20037;-82
2020/12/12 00:26:17;;;;;;;35.72;17.73;;;;;;;;;;5069105;28;20057;-82
2020/12/12 00:28:48;;;;;;;37.85;18.58;;;;;;;;;;5060516;28;20049;-82
2020/12/12 00:31:18;;;;;;;37.13;18.65;;;;;;;;;;5060708;28;20061;-82
2020/12/12 00:33:46;;;;;;;44.00;19.42;;;;;;;;;;5062238;28;20417;-82
2020/12/12 00:36:18;;;;;;;42.28;19.45;;;;;;;;;;5061907;28;20049;-82
2020/12/12 00:38:46;;;;;;;46.15;20.40;;;;;;;;;;5062205;28;20052;-82
2020/12/12 00:41:13;;;;;;;46.00;19.45;;;;;;;;;;5061483;28;20057;-82
2020/12/12 00:43:43;;;;;;;41.90;19.88;;;;;;;;;;5063495;28;20321;-82
2020/12/12 00:46:09;;;;;;;40.15;20.00;;;;;;;;;;5065629;28;20048;-82
2020/12/12 00:48:38;;;;;;;43.45;21.50;;;;;;;;;;5063365;28;20112;-82
2020/12/12 00:51:07;;;;;;;40.45;20.10;;;;;;;;;;5063019;28;20083;-82
2020/12/12 00:53:37;;;;;;;43.13;20.85;;;;;;;;;;5062473;28;20147;-82
2020/12/12 00:56:15;;;;;;;44.40;20.27;;;;;;;;;;5061016;28;20049;-82
2020/12/12 00:58:48;;;;;;;40.80;20.50;;;;;;;;;;5062144;28;20558;-82
2020/12/12 01:01:15;;;;;;;46.47;20.52;;;;;;;;;;5061456;28;20162;-82
2020/12/12 01:03:41;;;;;;;45.47;20.35;;;;;;;;;;5061036;28;20136;-82
2020/12/12 01:06:11;;;;;;;47.60;20.88;;;;;;;;;;5060495;28;20110;-82
2020/12/12 01:08:43;;;;;;;43.55;20.52;;;;;;;;;;5060134;28;20053;-82
2020/12/12 01:11:11;;;;;;;46.50;21.35;;;;;;;;;;5059509;28;20056;-82
2020/12/12 01:13:41;;;;;;;43.05;21.83;;;;;;;;;;5059434;28;20113;-82
2020/12/12 01:16:08;;;;;;;49.55;23.20;;;;;;;;;;5059417;28;20092;-82
2020/12/12 01:18:35;;;;;;;43.03;20.10;;;;;;;;;;5059519;28;20108;-82
2020/12/12 01:21:17;;;;;;;47.22;21.27;;;;;;;;;;5060934;28;20045;-82
2020/12/12 01:23:48;;;;;;;40.35;19.73;;;;;;;;;;5060810;28;20049;-82
2020/12/12 01:26:15;;;;;;;48.65;20.80;;;;;;;;;;5077411;28;20080;-82
2020/12/12 01:28:43;;;;;;;48.47;22.40;;;;;;;;;;5080700;28;20332;-82
2020/12/12 01:31:15;;;;;;;49.25;22.17;;;;;;;;;;5081672;28;20104;-82
2020/12/12 01:33:49;;;;;;;43.15;21.65;;;;;;;;;;5064617;28;20049;-82
2020/12/12 01:36:17;;;;;;;40.50;21.17;;;;;;;;;;5064833;28;20052;-82
2020/12/12 01:38:43;;;;;;;47.92;21.63;;;;;;;;;;5068396;28;20052;-82
2020/12/12 01:41:18;;;;;;;47.55;21.58;;;;;;;;;;5070304;28;20128;-82
2020/12/12 01:43:52;;;;;;;54.08;23.40;;;;;;;;;;5085072;28;20053;-82
2020/12/12 01:46:26;;;;;;;48.22;23.70;;;;;;;;;;5084797;28;20053;-82
2020/12/12 01:48:55;;;;;;;47.90;22.63;;;;;;;;;;5067863;28;20058;-82
2020/12/12 01:51:25;;;;;;;51.33;23.35;;;;;;;;;;5068475;28;20401;-82
2020/12/12 01:53:57;;;;;;;50.25;24.35;;;;;;;;;;5084976;28;20059;-82
2020/12/12 01:56:26;;;;;;;51.08;23.27;;;;;;;;;;5067716;28;20106;-82
2020/12/12 01:58:56;;;;;;;51.80;24.00;;;;;;;;;;5085061;28;20056;-82
2020/12/12 02:01:29;;;;;;;48.80;23.58;;;;;;;;;;5085385;28;20060;-82
2020/12/12 02:04:12;;;;;;;54.50;25.38;;;;;;;;;;5084345;28;20038;-82
2020/12/12 02:06:50;;;;;;;52.55;24.85;;;;;;;;;;5068172;28;20063;-82
2020/12/12 02:09:17;;;;;;;49.92;24.45;;;;;;;;;;5067383;28;20110;-82
2020/12/12 02:11:45;;;;;;;56.17;25.88;;;;;;;;;;5085141;28;20076;-82
2020/12/12 02:14:12;;;;;;;49.50;24.80;;;;;;;;;;5067526;28;20059;-82
2020/12/12 02:16:50;;;;;;;54.53;25.48;;;;;;;;;;5085122;28;20560;-82
2020/12/12 02:19:17;;;;;;;57.03;26.58;;;;;;;;;;5066987;28;20060;-82
2020/12/12 02:21:47;;;;;;;54.08;26.10;;;;;;;;;;5067297;28;20063;-82
2020/12/12 02:24:18;;;;;;;56.53;25.20;;;;;;;;;;5083909;28;20044;-82
2020/12/12 02:26:44;;;;;;;61.78;26.02;;;;;;;;;;5064547;28;20059;-82
2020/12/12 02:29:11;;;;;;;58.40;26.63;;;;;;;;;;5066013;28;20124;-82
2020/12/12 02:31:39;;;;;;;64.13;28.95;;;;;;;;;;5085773;28;20049;-82
2020/12/12 02:34:13;;;;;;;57.53;26.55;;;;;;;;;;5084827;28;20139;-82
2020/12/12 02:36:43;;;;;;;54.53;25.55;;;;;;;;;;5085348;28;20083;-82
2020/12/12 02:39:13;;;;;;;54.47;26.58;;;;;;;;;;5067065;28;20078;-82
2020/12/12 02:41:40;;;;;;;56.55;26.63;;;;;;;;;;5084243;28;20063;-82
2020/12/12 02:44:23;;;;;;;57.50;26.40;;;;;;;;;;5084479;28;20082;-81
2020/12/12 02:46:50;;;;;;;60.47;28.15;;;;;;;;;;5084598;28;20098;-82
2020/12/12 02:49:17;;;;;;;60.40;27.42;;;;;;;;;;5085332;28;20544;-82
2020/12/12 02:51:44;;;;;;;58.65;26.17;;;;;;;;;;5067440;28;20053;-82
2020/12/12 02:54:12;;;;;;;58.45;27.42;;;;;;;;;;5066284;28;20055;-82
2020/12/12 02:56:38;;;;;;;59.45;28.20;;;;;;;;;;5086238;28;20060;-82
2020/12/12 02:59:33;;;;;;;74.07;29.23;;;;;;;;;;5070419;28;20099;-82
2020/12/12 03:01:59;;;;;;;53.80;26.27;;;;;;;;;;5069619;28;20068;-82
2020/12/12 03:04:27;;;;;;;60.10;28.90;;;;;;;;;;5098869;28;20096;-80
2020/12/12 03:06:54;;;;;;;64.20;29.17;;;;;;;;;;5098108;28;20343;-82
2020/12/12 03:09:21;;;;;;;59.72;27.45;;;;;;;;;;5068642;28;20056;-82
2020/12/12 03:11:48;;;;;;;64.70;27.92;;;;;;;;;;5068582;28;20421;-81
2020/12/12 03:14:14;;;;;;;59.78;28.13;;;;;;;;;;5067186;28;20059;-82
2020/12/12 03:16:40;;;;;;;59.97;28.13;;;;;;;;;;5067069;28;20140;-82
2020/12/12 03:19:08;;;;;;;66.85;27.70;;;;;;;;;;5078332;28;20056;-82
2020/12/12 03:21:34;;;;;;;58.28;28.05;;;;;;;;;;5087752;28;20051;-82
2020/12/12 03:24:01;;;;;;;58.30;28.48;;;;;;;;;;5105414;28;20048;-82
2020/12/12 03:26:32;;;;;;;62.67;30.13;;;;;;;;;;5105009;28;20055;-82
2020/12/12 03:28:59;;;;;;;58.83;27.63;;;;;;;;;;5105471;28;20052;-82
2020/12/12 03:31:24;;;;;;;61.28;29.20;;;;;;;;;;5105310;28;20047;-82
2020/12/12 03:33:56;;;;;;;60.85;28.08;;;;;;;;;;5105090;28;20044;-82
2020/12/12 03:36:22;;;;;;;59.58;28.38;;;;;;;;;;5087607;28;20051;-82
2020/12/12 03:38:48;;;;;;;62.50;28.40;;;;;;;;;;5086744;28;20059;-82
2020/12/12 03:41:20;;;;;;;58.95;27.92;;;;;;;;;;5105390;28;20052;-82
2020/12/12 03:43:49;;;;;;;58.08;28.13;;;;;;;;;;5116838;28;20047;-80
2020/12/12 03:46:15;;;;;;;58.65;27.85;;;;;;;;;;5103017;28;20059;-81
2020/12/12 03:48:47;;;;;;;60.25;28.92;;;;;;;;;;5097060;28;20044;-82
2020/12/12 03:51:21;;;;;;;59.28;28.55;;;;;;;;;;5107527;28;20052;-82
2020/12/12 03:54:06;;;;;;;59.42;28.35;;;;;;;;;;5106025;28;20048;-82
2020/12/12 03:56:35;;;;;;;66.60;30.65;;;;;;;;;;5099594;28;20040;-80
2020/12/12 03:59:01;;;;;;;68.53;30.55;;;;;;;;;;5118808;28;20056;-82
2020/12/12 04:01:30;;;;;;;59.25;28.70;;;;;;;;;;5085476;28;20062;-82
2020/12/12 04:04:04;;;;;;;67.00;28.85;;;;;;;;;;5104170;28;20056;-82
2020/12/12 04:06:32;;;;;;;58.97;28.63;;;;;;;;;;5085553;28;20052;-82
2020/12/12 04:09:00;;;;;;;72.45;32.58;;;;;;;;;;5087048;28;20098;-82
2020/12/12 04:11:28;;;;;;;69.10;32.50;;;;;;;;;;5086975;28;20048;-82
2020/12/12 04:13:57;;;;;;;69.80;31.83;;;;;;;;;;5086336;28;20048;-82
2020/12/12 04:16:35;;;;;;;75.97;32.70;;;;;;;;;;5104894;28;20091;-82
2020/12/12 04:19:06;;;;;;;65.75;31.35;;;;;;;;;;5105054;28;20059;-82
2020/12/12 04:21:33;;;;;;;68.35;31.83;;;;;;;;;;5103305;28;20048;-82
2020/12/12 04:23:59;;;;;;;68.43;31.33;;;;;;;;;;5086282;28;20052;-82
2020/12/12 04:26:25;;;;;;;67.55;30.25;;;;;;;;;;5103664;28;20060;-82
2020/12/12 04:28:59;;;;;;;71.45;33.00;;;;;;;;;;5104311;28;20048;-82
2020/12/12 04:31:25;;;;;;;70.53;32.58;;;;;;;;;;5086710;28;20369;-82
2020/12/12 04:33:58;;;;;;;64.28;32.05;;;;;;;;;;5086499;28;20048;-82
2020/12/12 04:36:26;;;;;;;69.78;32.75;;;;;;;;;;5086646;28;20075;-82
2020/12/12 04:38:55;;;;;;;87.65;34.35;;;;;;;;;;5085915;28;20089;-82
2020/12/12 04:41:31;;;;;;;81.15;31.92;;;;;;;;;;5086721;28;20065;-82
2020/12/12 04:43:58;;;;;;;70.45;32.65;;;;;;;;;;5103396;28;20142;-82
2020/12/12 04:46:25;;;;;;;71.28;31.80;;;;;;;;;;5103886;28;20210;-82
2020/12/12 04:49:05;;;;;;;79.70;33.75;;;;;;;;;;5086569;28;20101;-82
2020/12/12 04:51:31;;;;;;;73.38;33.28;;;;;;;;;;5102930;28;20094;-82
2020/12/12 04:54:04;;;;;;;82.30;34.53;;;;;;;;;;5084907;28;20048;-82
2020/12/12 04:56:35;;;;;;;65.82;30.45;;;;;;;;;;5085344;28;20289;-82
2020/12/12 04:59:04;;;;;;;71.50;32.67;;;;;;;;;;5084653;28;20079;-82
2020/12/12 05:01:31;;;;;;;72.97;34.13;;;;;;;;;;5084239;28;20293;-81
2020/12/12 05:04:12;;;;;;;80.45;34.33;;;;;;;;;;5104807;28;20047;-81
2020/12/12 05:06:46;;;;;;;73.93;34.78;;;;;;;;;;5087257;28;20060;-81
2020/12/12 05:09:19;;;;;;;75.95;33.25;;;;;;;;;;5088583;28;20050;-81
2020/12/12 05:11:46;;;;;;;76.90;34.75;;;;;;;;;;5106887;28;20078;-81
2020/12/12 05:14:16;;;;;;;73.45;33.88;;;;;;;;;;5088811;28;20052;-81
2020/12/12 05:16:44;;;;;;;76.45;34.08;;;;;;;;;;5087789;28;20113;-81
2020/12/12 05:19:12;;;;;;;69.05;32.83;;;;;;;;;;5088592;28;20052;-81
2020/12/12 05:21:48;;;;;;;77.05;34.45;;;;;;;;;;5105638;28;20062;-81
2020/12/12 05:24:15;;;;;;;74.40;33.63;;;;;;;;;;5086841;28;20051;-81
2020/12/12 05:26:43;;;;;;;72.10;32.75;;;;;;;;;;5086421;28;20494;-81
2020/12/12 05:29:14;;;;;;;69.85;34.97;;;;;;;;;;5102406;28;20109;-81
2020/12/12 05:31:40;;;;;;;74.40;33.63;;;;;;;;;;5103436;28;20116;-81
2020/12/12 05:34:14;;;;;;;62.95;33.03;;;;;;;;;;5105041;28;20116;-81
2020/12/12 05:36:43;;;;;;;70.45;32.80;;;;;;;;;;5104470;28;20048;-81
2020/12/12 05:39:12;;;;;;;69.63;31.48;;;;;;;;;;5087280;28;20048;-81
2020/12/12 05:41:42;;;;;;;65.38;33.28;;;;;;;;;;5104262;28;20127;-81
2020/12/12 05:44:10;;;;;;;70.32;34.05;;;;;;;;;;5104245;28;20028;-81
2020/12/12 05:46:38;;;;;;;70.97;31.80;;;;;;;;;;5104981;28;20056;-81
2020/12/12 05:49:07;;;;;;;69.25;33.53;;;;;;;;;;5088248;28;20059;-82
2020/12/12 05:51:33;;;;;;;69.55;31.15;;;;;;;;;;5092418;28;20048;-82
2020/12/12 05:54:04;;;;;;;63.30;30.92;;;;;;;;;;5074001;28;20037;-82
2020/12/12 05:56:36;;;;;;;62.42;32.38;;;;;;;;;;5081230;28;20040;-81
2020/12/12 05:59:04;;;;;;;65.18;31.30;;;;;;;;;;5071057;28;20057;-82
2020/12/12 06:01:38;;;;;;;79.07;33.15;;;;;;;;;;5083574;28;20053;-82
2020/12/12 06:04:16;;;;;;;68.80;31.95;;;;;;;;;;5067249;28;20103;-82
2020/12/12 06:06:45;;;;;;;69.72;33.92;;;;;;;;;;5083501;28;20044;-82
2020/12/12 06:09:15;;;;;;;71.00;31.35;;;;;;;;;;5082827;28;20058;-82
2020/12/12 06:11:53;;;;;;;63.10;31.80;;;;;;;;;;5064620;28;20056;-82
2020/12/12 06:14:22;;;;;;;68.93;33.08;;;;;;;;;;5065507;28;20048;-81
2020/12/12 06:16:48;;;;;;;70.97;32.80;;;;;;;;;;5082476;28;20060;-82
2020/12/12 06:19:22;;;;;;;67.93;32.65;;;;;;;;;;5066505;28;20224;-81
2020/12/12 06:21:52;;;;;;;70.10;32.40;;;;;;;;;;5066447;28;20080;-82
2020/12/12 06:24:22;;;;;;;67.38;31.40;;;;;;;;;;5083462;28;20084;-81
2020/12/12 06:26:59;;;;;;;68.38;33.78;;;;;;;;;;5068690;28;20092;-81
2020/12/12 06:29:30;;;;;;;68.13;31.48;;;;;;;;;;5070100;28;20072;-81
2020/12/12 06:31:57;;;;;;;68.63;31.48;;;;;;;;;;5068706;28;20075;-81
2020/12/12 06:34:48;;;;;;;69.30;32.85;;;;;;;;;;5069695;28;20052;-81
2020/12/12 06:37:33;;;;;;;70.30;32.67;;;;;;;;;;5069492;28;20416;-81
2020/12/12 06:40:16;;;;;;;68.60;33.92;;;;;;;;;;5068836;28;20058;-81
2020/12/12 06:42:46;;;;;;;67.97;31.93;;;;;;;;;;5070050;28;20485;-81
2020/12/12 06:45:23;;;;;;;71.47;32.17;;;;;;;;;;5069305;28;20048;-81
2020/12/12 06:47:54;;;;;;;69.20;33.95;;;;;;;;;;5068301;28;20087;-81
2020/12/12 06:50:36;;;;;;;66.57;32.10;;;;;;;;;;5069244;28;20064;-81
2020/12/12 06:53:26;;;;;;;70.18;33.35;;;;;;;;;;5067870;28;20079;-81
2020/12/12 06:56:14;;;;;;;72.03;33.85;;;;;;;;;;5069573;28;20112;-80
2020/12/12 06:58:46;;;;;;;65.03;32.47;;;;;;;;;;5070038;28;20437;-81
2020/12/12 07:01:40;;;;;;;64.38;31.38;;;;;;;;;;5090102;28;20044;-80
2020/12/12 07:04:11;;;;;;;73.43;31.00;;;;;;;;;;5106358;28;20108;-81
2020/12/12 07:06:42;;;;;;;70.25;33.03;;;;;;;;;;5090412;28;20052;-81
2020/12/12 07:09:15;;;;;;;75.38;32.55;;;;;;;;;;5090454;28;20126;-81
2020/12/12 07:11:47;;;;;;;70.38;33.63;;;;;;;;;;5099158;28;20036;-81
2020/12/12 07:14:21;;;;;;;69.82;30.85;;;;;;;;;;5078415;28;20065;-81
2020/12/12 07:16:55;;;;;;;72.47;32.42;;;;;;;;;;5070725;28;20067;-81
2020/12/12 07:19:49;;;;;;;64.15;30.80;;;;;;;;;;5082810;28;20032;-82
2020/12/12 07:22:20;;;;;;;72.38;31.42;;;;;;;;;;5101454;28;20044;-81
2020/12/12 07:24:59;;;;;;;66.10;32.65;;;;;;;;;;5077792;28;20072;-82
2020/12/12 07:27:26;;;;;;;68.82;33.38;;;;;;;;;;5070925;28;20044;-80
2020/12/12 07:29:59;;;;;;;85.15;33.13;;;;;;;;;;5077374;28;20049;-81
2020/12/12 07:32:28;;;;;;;67.97;31.73;;;;;;;;;;5099214;28;20043;-81
2020/12/12 07:35:01;;;;;;;67.22;32.50;;;;;;;;;;5084007;28;20100;-82
2020/12/12 07:37:36;;;;;;;67.28;32.33;;;;;;;;;;5073547;28;20410;-83
2020/12/12 07:40:19;;;;;;;63.72;29.88;;;;;;;;;;5068393;28;20336;-82
2020/12/12 07:43:28;;;;;;;67.13;30.85;;;;;;;;;;5049734;28;20142;-82
2020/12/12 07:46:09;;;;;;;65.32;30.65;;;;;;;;;;5083266;28;20060;-83
2020/12/12 07:48:40;;;;;;;72.25;32.83;;;;;;;;;;5072702;28;20127;-83
2020/12/12 07:51:17;;;;;;;71.07;32.80;;;;;;;;;;5075251;28;20051;-82
2020/12/12 07:53:47;;;;;;;62.63;30.25;;;;;;;;;;5080389;28;20100;-82
2020/12/12 07:56:22;;;;;;;66.05;32.53;;;;;;;;;;5082341;28;20121;-82
2020/12/12 07:59:03;;;;;;;65.70;32.00;;;;;;;;;;5074373;28;20053;-82
2020/12/12 08:01:43;;;;;;;64.07;30.25;;;;;;;;;;5077339;28;20052;-82
2020/12/12 08:04:23;;;;;;;66.63;32.72;;;;;;;;;;5071571;28;20121;-82
2020/12/12 08:06:54;;;;;;;63.97;32.22;;;;;;;;;;5063201;28;20049;-81
2020/12/12 08:09:23;;;;;;;70.40;33.15;;;;;;;;;;5077149;28;20056;-82
2020/12/12 08:11:56;;;;;;;92.90;31.60;;;;;;;;;;5062742;28;20152;-82
2020/12/12 08:14:25;;;;;;;62.70;30.27;;;;;;;;;;5066434;28;20049;-82
2020/12/12 08:17:00;;;;;;;69.55;29.27;;;;;;;;;;5078395;28;20060;-82
2020/12/12 08:19:29;;;;;;;64.72;30.85;;;;;;;;;;5079904;28;20056;-83
2020/12/12 08:22:16;;;;;;;67.88;32.22;;;;;;;;;;5069434;28;20053;-81
2020/12/12 08:24:50;;;;;;;67.10;31.40;;;;;;;;;;5066468;28;20348;-82
2020/12/12 08:27:27;;;;;;;64.90;31.15;;;;;;;;;;5063314;28;20059;-82
2020/12/12 08:30:00;;;;;;;67.38;30.23;;;;;;;;;;5063128;28;20044;-83
2020/12/12 08:32:34;;;;;;;62.97;28.90;;;;;;;;;;5063283;28;20056;-82
2020/12/12 08:35:08;;;;;;;67.97;31.58;;;;;;;;;;5087825;28;20048;-83
2020/12/12 08:37:39;;;;;;;66.78;32.10;;;;;;;;;;5085169;28;20050;-82
2020/12/12 08:40:11;;;;;;;70.38;30.17;;;;;;;;;;5101255;28;20044;-82
2020/12/12 08:42:38;;;;;;;64.82;30.77;;;;;;;;;;5099503;28;20051;-83
2020/12/12 08:45:13;;;;;;;73.80;32.20;;;;;;;;;;5089836;28;20034;-82
2020/12/12 08:47:41;;;;;;;66.07;29.50;;;;;;;;;;5117555;28;20056;-82
2020/12/12 08:50:08;;;;;;;61.17;29.65;;;;;;;;;;5087143;28;20428;-82
2020/12/12 08:52:36;;;;;;;66.47;30.65;;;;;;;;;;5063326;28;20059;-82
2020/12/12 08:55:04;;;;;;;63.35;28.73;;;;;;;;;;5063038;28;20498;-82
2020/12/12 08:57:33;;;;;;;69.82;31.65;;;;;;;;;;5079984;28;20305;-82
2020/12/12 09:00:03;;;;;;;71.72;30.13;;;;;;;;;;5078940;28;20048;-82
2020/12/12 09:02:35;;;;;;;69.35;31.27;;;;;;;;;;5080044;28;20244;-82
2020/12/12 09:05:09;;;;;;;65.57;31.27;;;;;;;;;;5077658;28;20047;-82
2020/12/12 09:07:36;;;;;;;69.38;31.85;;;;;;;;;;5077186;28;20106;-82
2020/12/12 09:10:15;;;;;;;61.85;29.48;;;;;;;;;;5058767;28;20040;-83
2020/12/12 09:12:50;;;;;;;65.68;31.30;;;;;;;;;;5080867;28;20051;-83
2020/12/12 09:15:25;;;;;;;70.95;31.90;;;;;;;;;;5080305;28;20112;-83
2020/12/12 09:18:03;;;;;;;64.18;30.05;;;;;;;;;;5080218;28;20530;-83
2020/12/12 09:20:33;;;;;;;56.13;28.02;;;;;;;;;;5097912;28;20052;-83
2020/12/12 09:22:59;;;;;;;68.32;29.40;;;;;;;;;;5081273;28;20063;-82
2020/12/12 09:25:28;;;;;;;65.72;28.70;;;;;;;;;;5074650;28;20094;-83
2020/12/12 09:28:01;;;;;;;57.22;28.58;;;;;;;;;;5076631;28;20048;-82
2020/12/12 09:33:57;;;;;;;57.85;27.55;;;;;;;;;;5080334;28;20522;-83
2020/12/12 09:36:37;;;;;;;56.20;27.88;;;;;;;;;;5080293;28;20044;-83
2020/12/12 09:39:21;;;;;;;62.53;30.15;;;;;;;;;;5074122;28;20097;-82
2020/12/12 09:42:02;;;;;;;60.58;27.95;;;;;;;;;;5096485;28;20625;-83
2020/12/12 09:44:45;;;;;;;61.22;29.42;;;;;;;;;;5074181;28;20072;-82
2020/12/12 09:47:26;;;;;;;60.25;27.80;;;;;;;;;;5067913;28;20412;-83
2020/12/12 09:50:06;;;;;;;59.63;26.92;;;;;;;;;;5064554;28;20045;-83
2020/12/12 09:52:35;;;;;;;59.00;28.83;;;;;;;;;;5067963;28;20052;-82
2020/12/12 09:55:03;;;;;;;60.88;29.05;;;;;;;;;;5074362;28;20052;-83
2020/12/12 09:57:33;;;;;;;65.32;28.95;;;;;;;;;;5046173;28;20318;-83
2020/12/12 10:00:04;;;;;;;67.18;33.47;;;;;;;;;;5041823;28;20095;-83
2020/12/12 10:02:31;;;;;;;59.65;27.88;;;;;;;;;;5071345;28;20083;-82
2020/12/12 10:05:00;;;;;;;59.78;27.27;;;;;;;;;;5041303;28;20582;-83
2020/12/12 10:07:33;;;;;;;58.75;28.75;;;;;;;;;;5040822;28;20048;-83
2020/12/12 10:09:59;;;;;;;58.42;27.42;;;;;;;;;;5051800;28;20386;-82
2020/12/12 10:12:25;;;;;;;55.53;27.13;;;;;;;;;;5079514;28;20048;-82
2020/12/12 10:14:51;;;;;;;61.30;29.05;;;;;;;;;;5056026;28;20617;-82
2020/12/12 10:17:17;;;;;;;58.05;27.63;;;;;;;;;;5044870;28;20076;-82
2020/12/12 10:19:44;;;;;;;57.78;28.70;;;;;;;;;;5058873;28;20048;-82
2020/12/12 10:22:10;;;;;;;56.58;28.20;;;;;;;;;;5060376;28;20056;-83
2020/12/12 10:24:41;;;;;;;57.83;27.08;;;;;;;;;;5056702;28;20060;-83
2020/12/12 10:27:08;;;;;;;55.22;26.88;;;;;;;;;;5078468;28;20158;-82
2020/12/12 10:29:34;;;;;;;57.65;27.88;;;;;;;;;;5075026;28;20076;-83
2020/12/12 10:32:07;;;;;;;56.13;27.80;;;;;;;;;;5076151;28;20055;-82
2020/12/12 10:34:39;;;;;;;55.00;27.10;;;;;;;;;;5059998;28;20044;-83
2020/12/12 10:37:11;;;;;;;63.90;28.33;;;;;;;;;;5059994;28;20049;-83
2020/12/12 10:39:47;;;;;;;56.35;26.95;;;;;;;;;;5047812;28;20048;-84
2020/12/12 10:42:13;;;;;;;;;;;;;;;;;;5059158;28;20049;-82
2020/12/12 10:44:39;;;;;;;57.60;25.03;;;;;;;;;;5066920;28;20407;-82
2020/12/12 10:47:08;;;;;;;53.25;26.58;;;;;;;;;;5046664;28;20053;-81
2020/12/12 10:49:37;;;;;;;56.63;26.35;;;;;;;;;;5045481;28;20055;-82
2020/12/12 10:52:06;;;;;;;56.75;27.77;;;;;;;;;;5071981;28;20052;-81
2020/12/12 10:54:40;;;;;;;58.17;25.92;;;;;;;;;;5069729;28;20064;-83
2020/12/12 10:57:08;;;;;;;55.92;25.67;;;;;;;;;;5063384;28;20211;-82
2020/12/12 10:59:35;;;;;;;54.30;25.55;;;;;;;;;;5079591;28;20635;-82
2020/12/12 11:02:04;;;;;;;53.03;26.30;;;;;;;;;;5058879;28;20344;-82
2020/12/12 11:04:33;;;;;;;52.42;25.58;;;;;;;;;;5071086;28;20040;-82
2020/12/12 11:07:04;;;;;;;48.72;25.95;;;;;;;;;;5075127;28;20461;-82
2020/12/12 11:09:31;;;;;;;58.28;26.70;;;;;;;;;;5052112;28;20114;-82
2020/12/12 11:12:07;;;;;;;55.83;26.48;;;;;;;;;;5051497;28;20494;-82
2020/12/12 11:14:35;;;;;;;55.80;27.90;;;;;;;;;;5057667;28;20049;-82
2020/12/12 11:17:05;;;;;;;49.85;24.92;;;;;;;;;;5052115;28;20063;-82
2020/12/12 11:19:43;;;;;;;56.95;28.40;;;;;;;;;;5047480;28;20059;-82
2020/12/12 11:22:11;;;;;;;57.50;26.45;;;;;;;;;;5045930;28;20061;-82
2020/12/12 11:24:41;;;;;;;54.80;25.27;;;;;;;;;;5068249;28;20044;-82
2020/12/12 11:27:08;;;;;;;49.55;26.67;;;;;;;;;;5061853;28;20053;-82
2020/12/12 11:29:37;;;;;;;52.38;26.23;;;;;;;;;;5071729;28;20073;-82
2020/12/12 11:32:09;;;;;;;51.05;27.13;;;;;;;;;;5050831;28;20139;-82
2020/12/12 11:34:47;;;;;;;55.85;26.95;;;;;;;;;;5057674;28;20116;-82
2020/12/12 11:37:47;;;;;;;54.17;25.20;;;;;;;;;;5061880;28;20043;-82
2020/12/12 11:40:28;;;;;;;55.15;25.52;;;;;;;;;;5075092;28;20346;-82
2020/12/12 11:48:26;;;;;;;44.92;23.77;;;;;;;;;;5041810;28;20140;-82
2020/12/12 11:50:52;;;;;;;46.00;24.35;;;;;;;;;;5038797;28;20056;-82
2020/12/12 11:53:21;;;;;;;52.83;24.80;;;;;;;;;;5054850;28;20041;-82
2020/12/12 11:55:51;;;;;;;50.35;25.17;;;;;;;;;;5049611;28;20049;-82
2020/12/12 11:58:18;;;;;;;54.72;24.95;;;;;;;;;;5054938;28;20056;-82
2020/12/12 12:00:44;;;;;;;48.55;23.10;;;;;;;;;;5052634;28;20049;-82
2020/12/12 12:03:12;;;;;;;44.75;22.50;;;;;;;;;;5054266;28;20154;-82
2020/12/12 12:05:41;;;;;;;51.65;24.73;;;;;;;;;;5039933;28;20053;-83
2020/12/12 12:08:16;;;;;;;48.38;23.55;;;;;;;;;;5045337;28;20053;-83
2020/12/12 12:10:44;;;;;;;51.55;24.75;;;;;;;;;;5041612;28;20330;-82
2020/12/12 12:13:33;;;;;;;45.97;22.60;;;;;;;;;;5037239;28;20045;-82
2020/12/12 12:16:08;;;;;;;51.28;24.92;;;;;;;;;;5040387;28;20048;-81
2020/12/12 12:18:43;;;;;;;48.50;24.98;;;;;;;;;;5056776;28;20056;-83
2020/12/12 12:21:13;;;;;;;46.78;23.05;;;;;;;;;;5057127;28;20064;-82
2020/12/12 12:23:49;;;;;;;46.67;22.70;;;;;;;;;;5056229;28;20056;-83
2020/12/12 12:26:20;;;;;;;45.17;23.25;;;;;;;;;;5056437;28;20348;-83
2020/12/12 12:28:49;;;;;;;46.17;21.73;;;;;;;;;;5056448;28;20048;-83
2020/12/12 12:31:20;;;;;;;44.40;22.50;;;;;;;;;;5056917;28;20057;-82
2020/12/12 12:33:51;;;;;;;45.20;21.90;;;;;;;;;;5057441;28;20092;-83
2020/12/12 12:36:22;;;;;;;49.10;23.23;;;;;;;;;;5051909;28;20044;-82
2020/12/12 12:38:53;;;;;;;46.90;23.40;;;;;;;;;;5047129;28;20103;-83
2020/12/12 12:41:28;;;;;;;46.35;23.35;;;;;;;;;;5044046;28;20049;-83
2020/12/12 12:44:00;;;;;;;42.65;22.63;;;;;;;;;;5047594;28;20103;-83
2020/12/12 12:46:31;;;;;;;42.60;22.35;;;;;;;;;;5048024;28;20151;-82
2020/12/12 12:49:02;;;;;;;43.63;22.30;;;;;;;;;;5042695;28;20109;-82
2020/12/12 12:51:33;;;;;;;41.08;22.17;;;;;;;;;;5043317;28;20057;-83
2020/12/12 12:54:05;;;;;;;42.38;22.67;;;;;;;;;;5042323;28;20410;-83
2020/12/12 12:56:35;;;;;;;42.78;22.02;;;;;;;;;;5046311;28;20409;-82
2020/12/12 12:59:19;;;;;;;45.53;21.45;;;;;;;;;;5041468;28;20060;-82
2020/12/12 13:01:50;;;;;;;42.75;22.35;;;;;;;;;;5053211;28;20071;-82
2020/12/12 13:04:18;;;;;;;50.85;22.45;;;;;;;;;;5049012;28;20332;-83
2020/12/12 13:06:48;;;;;;;43.88;22.30;;;;;;;;;;5043057;28;20053;-83
2020/12/12 13:09:34;;;;;;;46.90;22.63;;;;;;;;;;5045218;28;20043;-83
2020/12/12 13:12:15;;;;;;;43.65;24.02;;;;;;;;;;5042038;28;20116;-83
2020/12/12 13:14:44;;;;;;;44.28;23.33;;;;;;;;;;5050181;28;20037;-83
2020/12/12 13:17:20;;;;;;;45.08;22.67;;;;;;;;;;5041868;28;20075;-83
2020/12/12 13:19:55;;;;;;;43.92;22.77;;;;;;;;;;5041693;28;20049;-82
2020/12/12 13:22:35;;;;;;;39.97;22.10;;;;;;;;;;5043776;28;20048;-83
2020/12/12 13:25:05;;;;;;;40.33;21.77;;;;;;;;;;5037766;28;20176;-83
2020/12/12 13:27:34;;;;;;;42.15;22.23;;;;;;;;;;5040883;28;20041;-82
2020/12/12 13:30:21;;;;;;;40.05;21.00;;;;;;;;;;5050828;28;20344;-83
2020/12/12 13:32:47;;;;;;;44.45;22.67;;;;;;;;;;5052050;28;20139;-83
2020/12/12 13:38:35;;;;;;;43.72;22.67;;;;;;;;;;5046582;28;20044;-83
2020/12/12 13:41:07;;;;;;;43.67;22.20;;;;;;;;;;5039566;28;20719;-83
2020/12/12 13:43:38;;;;;;;43.10;22.50;;;;;;;;;;5043951;28;20053;-83
2020/12/12 13:46:06;;;;;;;41.05;22.17;;;;;;;;;;5050861;28;20060;-83
2020/12/12 13:48:33;;;;;;;49.50;23.95;;;;;;;;;;5048653;28;20064;-83
2020/12/12 13:51:08;;;;;;;43.60;22.92;;;;;;;;;;5038580;28;20156;-83
2020/12/12 13:53:37;;;;;;;43.28;23.00;;;;;;;;;;5037542;28;20049;-83
2020/12/12 13:56:08;;;;;;;42.22;22.38;;;;;;;;;;5044258;28;20103;-83
2020/12/12 13:58:36;;;;;;;40.33;21.58;;;;;;;;;;5038222;28;20060;-83
2020/12/12 14:01:02;;;;;;;47.95;22.23;;;;;;;;;;5052586;28;20162;-82
2020/12/12 14:03:36;;;;;;;46.92;22.23;;;;;;;;;;5038753;28;20049;-82
2020/12/12 14:06:10;;;;;;;44.33;22.80;;;;;;;;;;5039806;28;20052;-84
2020/12/12 14:09:29;;;;;;;51.28;23.10;;;;;;;;;;5046285;28;20057;-82
2020/12/12 14:23:21;;;;;;;36.85;21.35;;;;;;;;;;5060289;28;20194;-81
2020/12/12 14:28:39;;;;;;;46.45;22.70;;;;;;;;;;5076509;28;20055;-83
2020/12/12 14:31:07;;;;;;;41.75;20.90;;;;;;;;;;5061033;28;20060;-81
2020/12/12 14:33:47;;;;;;;43.65;22.88;;;;;;;;;;5042324;28;20422;-81
2020/12/12 14:36:33;;;;;;;46.90;21.85;;;;;;;;;;5052834;28;20047;-81
2020/12/12 14:39:19;;;;;;;41.88;21.88;;;;;;;;;;5075252;28;20056;-82
2020/12/12 14:41:45;;;;;;;42.10;20.92;;;;;;;;;;5061630;28;20092;-82
2020/12/12 14:44:12;;;;;;;43.95;22.35;;;;;;;;;;5055065;28;20045;-82
2020/12/12 14:46:46;;;;;;;43.63;22.33;;;;;;;;;;5049737;28;20055;-82
2020/12/12 14:49:14;;;;;;;45.47;23.67;;;;;;;;;;5050248;28;20072;-82
2020/12/12 14:51:47;;;;;;;40.85;21.42;;;;;;;;;;5050568;28;20069;-82
2020/12/12 14:54:25;;;;;;;37.97;21.88;;;;;;;;;;5043634;28;20069;-82
2020/12/12 14:56:59;;;;;;;42.80;21.75;;;;;;;;;;5044765;28;20136;-82
2020/12/12 14:59:52;;;;;;;42.92;22.83;;;;;;;;;;5044325;28;20061;-82
2020/12/12 15:02:36;;;;;;;43.75;22.85;;;;;;;;;;5040828;28;20164;-81
2020/12/12 15:05:10;;;;;;;41.10;22.42;;;;;;;;;;5045081;28;20063;-82
2020/12/12 15:07:39;;;;;;;42.53;21.50;;;;;;;;;;5058952;28;20053;-82
2020/12/12 15:10:06;;;;;;;42.47;22.63;;;;;;;;;;5057834;28;20580;-82
2020/12/12 15:12:33;;;;;;;42.47;22.45;;;;;;;;;;5051782;28;20051;-82